createdAt,value
2018-06-30T00:00:19.301Z,98366.00
2018-06-30T00:02:50.553Z,98369.00
2018-06-30T00:05:21.407Z,98365.00
2018-06-30T00:07:52.180Z,98367.00
2018-06-30T00:10:28.361Z,98369.00
2018-06-30T00:13:01.608Z,98367.00
2018-06-30T00:15:32.634Z,98367.00
2018-06-30T00:18:03.678Z,98366.00
2018-06-30T00:20:35.157Z,98367.00
2018-06-30T00:23:06.122Z,98362.00
2018-06-30T00:25:36.939Z,98367.00
2018-06-30T00:28:07.656Z,98363.00
2018-06-30T00:30:38.881Z,98367.00
2018-06-30T00:33:10.724Z,98360.00
2018-06-30T00:35:41.363Z,98358.00
2018-06-30T00:38:12.315Z,98363.00
2018-06-30T00:40:43.372Z,98365.00
2018-06-30T00:43:14.130Z,98362.00
2018-06-30T00:45:44.395Z,98364.00
2018-06-30T00:48:15.205Z,98366.00
2018-06-30T00:50:45.984Z,98355.00
2018-06-30T00:53:16.997Z,98359.00
2018-06-30T00:55:46.948Z,98353.00
2018-06-30T00:58:17.912Z,98349.00
2018-06-30T01:00:48.634Z,98343.00
2018-06-30T01:03:19.664Z,98346.00
2018-06-30T01:05:50.267Z,98342.00
2018-06-30T01:08:22.133Z,98336.00
2018-06-30T01:10:53.024Z,98339.00
2018-06-30T01:13:23.585Z,98345.00
2018-06-30T01:15:54.512Z,98339.00
2018-06-30T01:18:25.427Z,98337.00
2018-06-30T01:20:57.652Z,98336.00
2018-06-30T01:23:28.328Z,98335.00
2018-06-30T01:25:58.786Z,98335.00
2018-06-30T01:28:29.640Z,98333.00
2018-06-30T01:31:00.976Z,98331.00
2018-06-30T01:33:31.999Z,98324.00
2018-06-30T01:36:02.166Z,98331.00
2018-06-30T01:38:32.696Z,98332.00
2018-06-30T01:41:03.093Z,98327.00
2018-06-30T01:43:34.581Z,98333.00
2018-06-30T01:46:05.494Z,98333.00
2018-06-30T01:48:36.571Z,98329.00
2018-06-30T01:51:07.434Z,98325.00
2018-06-30T01:53:38.400Z,98323.00
2018-06-30T01:56:09.067Z,98317.00
2018-06-30T01:58:39.830Z,98321.00
2018-06-30T02:01:10.424Z,98320.00
2018-06-30T02:03:41.023Z,98326.00
2018-06-30T02:06:12.003Z,98328.00
2018-06-30T02:08:42.109Z,98331.00
2018-06-30T02:11:12.696Z,98329.00
2018-06-30T02:13:43.070Z,98340.00
2018-06-30T02:16:14.287Z,98340.00
2018-06-30T02:18:45.070Z,98338.00
2018-06-30T02:21:15.817Z,98340.00
2018-06-30T02:23:46.240Z,98342.00
2018-06-30T02:26:17.166Z,98339.00
2018-06-30T02:28:47.732Z,98336.00
2018-06-30T02:31:19.168Z,98335.00
2018-06-30T02:34:01.845Z,98339.00
2018-06-30T02:36:44.375Z,98344.00
2018-06-30T02:39:15.110Z,98348.00
2018-06-30T02:41:45.700Z,98342.00
2018-06-30T02:44:16.151Z,98343.00
2018-06-30T02:46:46.900Z,98341.00
2018-06-30T02:49:17.780Z,98345.00
2018-06-30T02:51:48.488Z,98345.00
2018-06-30T02:54:19.415Z,98344.00
2018-06-30T02:56:50.164Z,98346.00
2018-06-30T02:59:21.050Z,98348.00
2018-06-30T03:01:51.437Z,98346.00
2018-06-30T03:04:22.775Z,98343.00
2018-06-30T03:06:53.431Z,98347.00
2018-06-30T03:09:24.011Z,98347.00
2018-06-30T03:11:54.660Z,98350.00
2018-06-30T03:14:25.210Z,98348.00
2018-06-30T03:16:55.965Z,98355.00
2018-06-30T03:19:26.325Z,98358.00
2018-06-30T03:21:56.879Z,98358.00
2018-06-30T03:24:27.776Z,98358.00
2018-06-30T03:26:58.107Z,98356.00
2018-06-30T03:29:28.668Z,98354.00
2018-06-30T03:31:59.527Z,98359.00
2018-06-30T03:34:30.241Z,98355.00
2018-06-30T03:37:00.631Z,98359.00
2018-06-30T03:39:31.091Z,98356.00
2018-06-30T03:42:01.362Z,98360.00
2018-06-30T03:44:32.429Z,98366.00
2018-06-30T03:47:02.810Z,98360.00
2018-06-30T03:49:33.221Z,98367.00
2018-06-30T03:52:03.843Z,98366.00
2018-06-30T03:54:34.188Z,98368.00
2018-06-30T03:57:04.797Z,98370.00
2018-06-30T03:59:35.475Z,98367.00
2018-06-30T04:02:06.064Z,98373.00
2018-06-30T04:04:36.658Z,98371.00
2018-06-30T04:07:07.436Z,98372.00
2018-06-30T04:09:38.076Z,98370.00
2018-06-30T04:12:08.710Z,98363.00
2018-06-30T04:14:39.484Z,98362.00
2018-06-30T04:17:10.040Z,98362.00
2018-06-30T04:19:40.755Z,98361.00
2018-06-30T04:22:11.371Z,98363.00
2018-06-30T04:24:41.996Z,98364.00
2018-06-30T04:27:12.635Z,98367.00
2018-06-30T04:29:43.082Z,98361.00
2018-06-30T04:32:14.436Z,98365.00
2018-06-30T04:34:45.070Z,98366.00
2018-06-30T04:37:15.863Z,98355.00
2018-06-30T04:39:46.435Z,98355.00
2018-06-30T04:42:16.508Z,98350.00
2018-06-30T04:44:47.237Z,98349.00
2018-06-30T04:47:18.882Z,98348.00
2018-06-30T04:49:49.751Z,98350.00
2018-06-30T04:52:21.104Z,98350.00
2018-06-30T04:54:52.268Z,98343.00
2018-06-30T04:57:23.219Z,98344.00
2018-06-30T04:59:54.058Z,98343.00
2018-06-30T05:02:24.571Z,98336.00
2018-06-30T05:04:55.827Z,98341.00
2018-06-30T05:07:26.386Z,98345.00
2018-06-30T05:09:57.384Z,98351.00
2018-06-30T05:12:27.173Z,98340.00
2018-06-30T05:14:57.280Z,98332.00
2018-06-30T05:17:27.666Z,98328.00
2018-06-30T05:19:57.577Z,98335.00
2018-06-30T05:22:27.642Z,98336.00
2018-06-30T05:24:57.656Z,98333.00
2018-06-30T05:27:27.647Z,98334.00
2018-06-30T05:29:57.496Z,98334.00
2018-06-30T05:32:27.244Z,98335.00
2018-06-30T05:34:57.250Z,98337.00
2018-06-30T05:37:27.142Z,98334.00
2018-06-30T05:39:57.187Z,98334.00
2018-06-30T05:42:27.138Z,98332.00
2018-06-30T05:44:57.100Z,98328.00
2018-06-30T05:47:27.054Z,98335.00
2018-06-30T05:49:57.003Z,98334.00
2018-06-30T05:52:26.757Z,98329.00
2018-06-30T05:54:56.603Z,98330.00
2018-06-30T05:57:26.533Z,98334.00
2018-06-30T05:59:56.607Z,98328.00
2018-06-30T06:02:26.630Z,98328.00
2018-06-30T06:04:56.689Z,98326.00
2018-06-30T06:07:26.673Z,98326.00
2018-06-30T06:09:56.694Z,98328.00
2018-06-30T06:12:26.491Z,98323.00
2018-06-30T06:14:56.367Z,98322.00
2018-06-30T06:17:26.318Z,98318.00
2018-06-30T06:19:56.253Z,98323.00
2018-06-30T06:22:26.145Z,98326.00
2018-06-30T06:24:55.991Z,98324.00
2018-06-30T06:27:26.200Z,98329.00
2018-06-30T06:29:56.153Z,98326.00
2018-06-30T06:32:26.097Z,98325.00
2018-06-30T06:34:55.846Z,98309.00
2018-06-30T06:37:25.865Z,98318.00
2018-06-30T06:39:55.987Z,98319.00
2018-06-30T06:42:25.965Z,98319.00
2018-06-30T06:44:55.990Z,98327.00
2018-06-30T06:47:25.978Z,98319.00
2018-06-30T06:49:55.974Z,98327.00
2018-06-30T06:52:25.940Z,98326.00
2018-06-30T06:54:55.738Z,98329.00
2018-06-30T06:57:25.778Z,98322.00
2018-06-30T06:59:55.752Z,98336.00
2018-06-30T07:02:25.772Z,98334.00
2018-06-30T07:04:55.744Z,98332.00
2018-06-30T07:07:25.816Z,98336.00
2018-06-30T07:09:55.804Z,98338.00
2018-06-30T07:12:25.641Z,98341.00
2018-06-30T07:14:55.480Z,98333.00
2018-06-30T07:17:25.278Z,98331.00
2018-06-30T07:19:55.219Z,98336.00
2018-06-30T07:22:25.175Z,98336.00
2018-06-30T07:24:55.031Z,98337.00
2018-06-30T07:27:24.957Z,98334.00
2018-06-30T07:29:54.886Z,98328.00
2018-06-30T07:32:24.740Z,98327.00
2018-06-30T07:34:54.566Z,98326.00
2018-06-30T07:37:24.541Z,98331.00
2018-06-30T07:39:54.477Z,98332.00
2018-06-30T07:42:24.278Z,98338.00
2018-06-30T07:44:54.625Z,98340.00
2018-06-30T07:47:24.563Z,98339.00
2018-06-30T07:49:54.680Z,98350.00
2018-06-30T07:52:24.472Z,98352.00
2018-06-30T07:54:54.538Z,98334.00
2018-06-30T07:57:24.542Z,98361.00
2018-06-30T07:59:54.516Z,98367.00
2018-06-30T08:02:24.557Z,98366.00
2018-06-30T08:04:54.610Z,98365.00
2018-06-30T08:07:24.616Z,98356.00
2018-06-30T08:09:54.670Z,98354.00
2018-06-30T08:12:24.651Z,98360.00
2018-06-30T08:14:54.436Z,98364.00
2018-06-30T08:17:24.460Z,98357.00
2018-06-30T08:19:54.391Z,98353.00
2018-06-30T08:22:24.395Z,98349.00
2018-06-30T08:24:54.551Z,98349.00
2018-06-30T08:27:24.967Z,98351.00
2018-06-30T08:29:54.986Z,98347.00
2018-06-30T08:32:24.845Z,98348.00
2018-06-30T08:34:54.661Z,98348.00
2018-06-30T08:37:24.588Z,98352.00
2018-06-30T08:39:54.795Z,98354.00
2018-06-30T08:42:24.508Z,98352.00
2018-06-30T08:44:54.504Z,98352.00
2018-06-30T08:47:24.475Z,98343.00
2018-06-30T08:49:54.467Z,98353.00
2018-06-30T08:52:24.353Z,98350.00
2018-06-30T08:54:54.394Z,98361.00
2018-06-30T08:57:24.416Z,98377.00
2018-06-30T08:59:54.408Z,98381.00
2018-06-30T09:02:24.396Z,98376.00
2018-06-30T09:04:54.448Z,98385.00
2018-06-30T09:07:24.425Z,98390.00
2018-06-30T09:09:54.421Z,98398.00
2018-06-30T09:12:24.334Z,98393.00
2018-06-30T09:14:54.149Z,98398.00
2018-06-30T09:17:24.143Z,98398.00
2018-06-30T09:19:54.257Z,98401.00
2018-06-30T09:22:24.296Z,98404.00
2018-06-30T09:24:54.468Z,98410.00
2018-06-30T09:27:24.551Z,98407.00
2018-06-30T09:29:54.633Z,98404.00
2018-06-30T09:32:24.488Z,98407.00
2018-06-30T09:34:54.328Z,98409.00
2018-06-30T09:37:24.268Z,98414.00
2018-06-30T09:39:54.298Z,98408.00
2018-06-30T09:42:24.056Z,98406.00
2018-06-30T09:44:54.120Z,98407.00
2018-06-30T09:47:24.084Z,98396.00
2018-06-30T09:49:54.130Z,98398.00
2018-06-30T09:52:23.955Z,98393.00
2018-06-30T09:54:53.847Z,98395.00
2018-06-30T09:57:23.798Z,98394.00
2018-06-30T09:59:53.832Z,98385.00
2018-06-30T10:02:24.107Z,98379.00
2018-06-30T10:04:54.160Z,98382.00
2018-06-30T10:07:24.019Z,98381.00
2018-06-30T10:09:54.055Z,98380.00
2018-06-30T10:12:23.833Z,98382.00
2018-06-30T10:14:53.777Z,98374.00
2018-06-30T10:17:23.913Z,98382.00
2018-06-30T10:19:53.781Z,98384.00
2018-06-30T10:22:23.760Z,98371.00
2018-06-30T10:24:53.706Z,98364.00
2018-06-30T10:27:23.665Z,98360.00
2018-06-30T10:29:53.775Z,98374.00
2018-06-30T10:32:23.821Z,98373.00
2018-06-30T10:34:53.626Z,98360.00
2018-06-30T10:37:23.629Z,98371.00
2018-06-30T10:39:53.835Z,98370.00
2018-06-30T10:42:23.600Z,98366.00
2018-06-30T10:44:53.533Z,98367.00
2018-06-30T10:47:23.567Z,98358.00
2018-06-30T10:49:53.532Z,98369.00
2018-06-30T10:52:23.304Z,98368.00
2018-06-30T10:54:53.145Z,98367.00
2018-06-30T10:57:23.021Z,98353.00
2018-06-30T10:59:52.937Z,98347.00
2018-06-30T11:02:22.979Z,98337.00
2018-06-30T11:04:52.912Z,98337.00
2018-06-30T11:07:22.832Z,98338.00
2018-06-30T11:09:52.742Z,98320.00
2018-06-30T11:12:22.623Z,98332.00
2018-06-30T11:14:52.410Z,98329.00
2018-06-30T11:17:22.358Z,98336.00
2018-06-30T11:19:52.710Z,98335.00
2018-06-30T11:22:22.788Z,98328.00
2018-06-30T11:24:52.724Z,98340.00
2018-06-30T11:27:22.957Z,98338.00
2018-06-30T11:29:53.024Z,98327.00
2018-06-30T11:32:23.499Z,98325.00
2018-06-30T11:34:53.388Z,98325.00
2018-06-30T11:37:23.488Z,98329.00
2018-06-30T11:39:53.533Z,98327.00
2018-06-30T11:42:23.412Z,98327.00
2018-06-30T11:44:53.484Z,98328.00
2018-06-30T11:47:23.476Z,98338.00
2018-06-30T11:49:53.377Z,98338.00
2018-06-30T11:52:23.320Z,98338.00
2018-06-30T11:54:53.130Z,98350.00
2018-06-30T11:57:23.142Z,98338.00
2018-06-30T11:59:53.168Z,98325.00
2018-06-30T12:02:23.481Z,98337.00
2018-06-30T12:04:53.575Z,98339.00
2018-06-30T12:07:24.297Z,98342.00
2018-06-30T12:09:54.305Z,98339.00
2018-06-30T12:12:24.177Z,98354.00
2018-06-30T12:14:53.954Z,98346.00
2018-06-30T12:17:23.951Z,98353.00
2018-06-30T12:19:53.877Z,98352.00
2018-06-30T12:22:24.224Z,98365.00
2018-06-30T12:24:54.212Z,98351.00
2018-06-30T12:27:24.213Z,98346.00
2018-06-30T12:29:54.170Z,98340.00
2018-06-30T12:32:24.137Z,98330.00
2018-06-30T12:34:53.945Z,98338.00
2018-06-30T12:37:23.996Z,98338.00
2018-06-30T12:39:53.989Z,98335.00
2018-06-30T12:42:23.867Z,98339.00
2018-06-30T12:44:53.950Z,98332.00
2018-06-30T12:47:24.041Z,98338.00
2018-06-30T12:49:54.472Z,98316.00
2018-06-30T12:52:24.375Z,98335.00
2018-06-30T12:54:54.323Z,98336.00
2018-06-30T12:57:24.381Z,98338.00
2018-06-30T12:59:54.374Z,98346.00
2018-06-30T13:02:24.309Z,98335.00
2018-06-30T13:04:54.608Z,98329.00
2018-06-30T13:07:24.717Z,98337.00
2018-06-30T13:09:54.662Z,98342.00
2018-06-30T13:12:24.479Z,98332.00
2018-06-30T13:14:54.357Z,98330.00
2018-06-30T13:17:24.284Z,98338.00
2018-06-30T13:19:55.950Z,98318.00
2018-06-30T13:22:26.261Z,98310.00
2018-06-30T13:24:56.176Z,98321.00
2018-06-30T13:27:26.136Z,98314.00
2018-06-30T13:29:56.199Z,98314.00
2018-06-30T13:32:26.519Z,98313.00
2018-06-30T13:34:56.372Z,98312.00
2018-06-30T13:37:26.320Z,98319.00
2018-06-30T13:39:56.364Z,98318.00
2018-06-30T13:42:26.286Z,98307.00
2018-06-30T13:44:56.273Z,98307.00
2018-06-30T13:47:26.291Z,98311.00
2018-06-30T13:49:56.293Z,98302.00
2018-06-30T13:52:26.056Z,98303.00
2018-06-30T13:54:55.989Z,98299.00
2018-06-30T13:57:26.039Z,98302.00
2018-06-30T13:59:56.162Z,98303.00
2018-06-30T14:02:26.057Z,98311.00
2018-06-30T14:04:56.328Z,98309.00
2018-06-30T14:07:26.399Z,98317.00
2018-06-30T14:09:56.410Z,98321.00
2018-06-30T14:12:26.454Z,98321.00
2018-06-30T14:14:56.367Z,98318.00
2018-06-30T14:17:26.608Z,98320.00
2018-06-30T14:19:56.659Z,98330.00
2018-06-30T14:22:26.871Z,98335.00
2018-06-30T14:24:57.140Z,98337.00
2018-06-30T14:27:27.132Z,98342.00
2018-06-30T14:29:57.042Z,98344.00
2018-06-30T14:32:26.963Z,98331.00
2018-06-30T14:34:56.938Z,98331.00
2018-06-30T14:37:26.829Z,98341.00
2018-06-30T14:39:56.797Z,98334.00
2018-06-30T14:42:26.897Z,98336.00
2018-06-30T14:44:57.616Z,98333.00
2018-06-30T14:47:27.416Z,98331.00
2018-06-30T14:49:57.324Z,98338.00
2018-06-30T14:52:27.167Z,98332.00
2018-06-30T14:54:57.016Z,98324.00
2018-06-30T14:57:26.879Z,98325.00
2018-06-30T14:59:56.796Z,98320.00
2018-06-30T15:02:26.773Z,98321.00
2018-06-30T15:04:56.716Z,98326.00
2018-06-30T15:07:26.623Z,98330.00
2018-06-30T15:09:56.773Z,98332.00
2018-06-30T15:12:26.594Z,98337.00
2018-06-30T15:14:56.536Z,98331.00
2018-06-30T15:17:26.567Z,98327.00
2018-06-30T15:19:56.616Z,98327.00
2018-06-30T15:22:26.610Z,98332.00
2018-06-30T15:24:56.675Z,98338.00
2018-06-30T15:27:26.648Z,98338.00
2018-06-30T15:29:56.658Z,98345.00
2018-06-30T15:32:26.435Z,98343.00
2018-06-30T15:34:56.291Z,98342.00
2018-06-30T15:37:26.235Z,98340.00
2018-06-30T15:39:56.135Z,98350.00
2018-06-30T15:42:26.275Z,98350.00
2018-06-30T15:44:56.245Z,98356.00
2018-06-30T15:47:26.140Z,98359.00
2018-06-30T15:49:55.981Z,98364.00
2018-06-30T15:52:25.846Z,98365.00
2018-06-30T15:54:56.422Z,98369.00
2018-06-30T15:57:26.365Z,98376.00
2018-06-30T15:59:56.304Z,98380.00
2018-06-30T16:02:26.374Z,98381.00
2018-06-30T16:04:56.408Z,98372.00
2018-06-30T16:07:26.506Z,98380.00
2018-06-30T16:09:56.630Z,98384.00
2018-06-30T16:12:26.531Z,98390.00
2018-06-30T16:14:56.324Z,98387.00
2018-06-30T16:17:26.479Z,98392.00
2018-06-30T16:19:56.569Z,98396.00
2018-06-30T16:22:26.692Z,98402.00
2018-06-30T16:24:56.821Z,98393.00
2018-06-30T16:27:26.761Z,98401.00
2018-06-30T16:29:56.796Z,98400.00
2018-06-30T16:32:26.751Z,98395.00
2018-06-30T16:34:56.606Z,98393.00
2018-06-30T16:37:26.648Z,98390.00
2018-06-30T16:39:56.648Z,98394.00
2018-06-30T16:42:26.706Z,98395.00
2018-06-30T16:44:56.706Z,98392.00
2018-06-30T16:47:26.862Z,98398.00
2018-06-30T16:49:56.905Z,98400.00
2018-06-30T16:52:26.710Z,98406.00
2018-06-30T16:54:56.611Z,98420.00
2018-06-30T16:57:26.669Z,98432.00
2018-06-30T16:59:56.673Z,98437.00
2018-06-30T17:02:26.716Z,98442.00
2018-06-30T17:04:56.703Z,98443.00
2018-06-30T17:07:26.774Z,98449.00
2018-06-30T17:09:56.947Z,98453.00
2018-06-30T17:12:26.747Z,98464.00
2018-06-30T17:14:56.601Z,98477.00
2018-06-30T17:17:26.698Z,98480.00
2018-06-30T17:19:56.655Z,98476.00
2018-06-30T17:22:26.732Z,98484.00
2018-06-30T17:24:56.684Z,98485.00
2018-06-30T17:27:26.773Z,98491.00
2018-06-30T17:29:56.704Z,98493.00
2018-06-30T17:32:26.589Z,98500.00
2018-06-30T17:34:56.560Z,98508.00
2018-06-30T17:37:26.730Z,98513.00
2018-06-30T17:39:56.888Z,98517.00
2018-06-30T17:42:26.976Z,98526.00
2018-06-30T17:44:56.915Z,98531.00
2018-06-30T17:47:26.857Z,98537.00
2018-06-30T17:49:56.865Z,98547.00
2018-06-30T17:52:26.758Z,98554.00
2018-06-30T17:54:56.734Z,98554.00
2018-06-30T17:57:26.766Z,98555.00
2018-06-30T17:59:56.743Z,98564.00
2018-06-30T18:02:26.675Z,98567.00
2018-06-30T18:04:56.577Z,98570.00
2018-06-30T18:07:26.534Z,98574.00
2018-06-30T18:09:56.468Z,98570.00
2018-06-30T18:12:26.391Z,98578.00
2018-06-30T18:14:56.199Z,98581.00
2018-06-30T18:17:26.155Z,98590.00
2018-06-30T18:19:56.238Z,98596.00
2018-06-30T18:22:26.282Z,98604.00
2018-06-30T18:24:56.194Z,98597.00
2018-06-30T18:27:26.193Z,98597.00
2018-06-30T18:29:56.131Z,98606.00
2018-06-30T18:32:25.989Z,98609.00
2018-06-30T18:34:55.825Z,98612.00
2018-06-30T18:37:25.834Z,98612.00
2018-06-30T18:39:55.769Z,98617.00
2018-06-30T18:42:31.383Z,98621.00
2018-06-30T18:45:12.797Z,98623.00
2018-06-30T18:47:42.860Z,98639.00
2018-06-30T18:50:12.905Z,98646.00
2018-06-30T18:52:42.736Z,98649.00
2018-06-30T18:55:12.568Z,98652.00
2018-06-30T18:57:42.449Z,98653.00
2018-06-30T19:00:12.467Z,98666.00
2018-06-30T19:02:42.467Z,98675.00
2018-06-30T19:05:12.541Z,98678.00
2018-06-30T19:07:42.570Z,98680.00
2018-06-30T19:10:12.574Z,98684.00
2018-06-30T19:12:42.703Z,98689.00
2018-06-30T19:15:12.640Z,98697.00
2018-06-30T19:17:42.634Z,98694.00
2018-06-30T19:20:12.678Z,98704.00
2018-06-30T19:22:42.642Z,98714.00
2018-06-30T19:25:12.574Z,98718.00
2018-06-30T19:27:42.459Z,98725.00
2018-06-30T19:30:12.746Z,98729.00
2018-06-30T19:32:42.600Z,98738.00
2018-06-30T19:35:12.420Z,98744.00
2018-06-30T19:37:42.456Z,98750.00
2018-06-30T19:40:12.534Z,98753.00
2018-06-30T19:42:42.581Z,98754.00
2018-06-30T19:45:12.497Z,98755.00
2018-06-30T19:47:42.703Z,98765.00
2018-06-30T19:50:12.804Z,98768.00
2018-06-30T19:52:42.732Z,98773.00
2018-06-30T19:55:12.735Z,98782.00
2018-06-30T19:57:42.804Z,98786.00
2018-06-30T20:00:12.777Z,98782.00
2018-06-30T20:02:42.885Z,98783.00
2018-06-30T20:05:12.912Z,98785.00
2018-06-30T20:07:47.898Z,98792.00
2018-06-30T20:10:17.911Z,98796.00
2018-06-30T20:12:47.919Z,98796.00
2018-06-30T20:15:17.763Z,98795.00
2018-06-30T20:17:47.796Z,98805.00
2018-06-30T20:20:17.832Z,98807.00
2018-06-30T20:22:47.786Z,98808.00
2018-06-30T20:25:17.814Z,98815.00
2018-06-30T20:27:47.881Z,98825.00
2018-06-30T20:30:17.872Z,98826.00
2018-06-30T20:32:47.831Z,98829.00
2018-06-30T20:35:17.656Z,98828.00
2018-06-30T20:37:47.533Z,98825.00
2018-06-30T20:40:17.543Z,98825.00
2018-06-30T20:42:47.583Z,98838.00
2018-06-30T20:45:17.477Z,98849.00
2018-06-30T20:47:47.620Z,98854.00
2018-06-30T20:50:17.504Z,98855.00
2018-06-30T20:52:47.448Z,98852.00
2018-06-30T20:55:17.301Z,98856.00
2018-06-30T20:57:47.245Z,98855.00
2018-06-30T21:00:17.182Z,98856.00
2018-06-30T21:02:47.162Z,98859.00
2018-06-30T21:05:17.160Z,98858.00
2018-06-30T21:07:47.160Z,98869.00
2018-06-30T21:10:17.096Z,98869.00
2018-06-30T21:12:46.986Z,98869.00
2018-06-30T21:15:16.755Z,98861.00
2018-06-30T21:17:46.803Z,98862.00
2018-06-30T21:20:16.798Z,98861.00
2018-06-30T21:22:46.826Z,98861.00
2018-06-30T21:25:16.903Z,98864.00
2018-06-30T21:27:46.929Z,98867.00
2018-06-30T21:30:17.077Z,98865.00
2018-06-30T21:32:46.910Z,98874.00
2018-06-30T21:35:16.855Z,98870.00
2018-06-30T21:37:46.855Z,98877.00
2018-06-30T21:40:16.834Z,98871.00
2018-06-30T21:42:46.736Z,98869.00
2018-06-30T21:45:16.541Z,98869.00
2018-06-30T21:47:52.318Z,98878.00
2018-06-30T21:50:34.016Z,98878.00
2018-06-30T21:53:07.264Z,98878.00
2018-06-30T21:55:37.116Z,98877.00
2018-06-30T21:58:08.212Z,98871.00
2018-06-30T22:00:51.014Z,98876.00
2018-06-30T22:03:24.065Z,98877.00
2018-06-30T22:05:56.143Z,98877.00
2018-06-30T22:08:27.230Z,98880.00
2018-06-30T22:10:58.136Z,98884.00
2018-06-30T22:13:29.102Z,98889.00
2018-06-30T22:16:00.256Z,98893.00
2018-06-30T22:18:31.122Z,98892.00
2018-06-30T22:21:01.625Z,98893.00
2018-06-30T22:23:32.644Z,98890.00
2018-06-30T22:26:03.463Z,98889.00
2018-06-30T22:28:34.337Z,98892.00
2018-06-30T22:31:05.356Z,98895.00
2018-06-30T22:33:36.321Z,98904.00
2018-06-30T22:36:07.422Z,98904.00
2018-06-30T22:38:38.324Z,98907.00
2018-06-30T22:41:09.133Z,98904.00
2018-06-30T22:43:39.832Z,98911.00
2018-06-30T22:46:10.686Z,98906.00
2018-06-30T22:48:41.587Z,98909.00
2018-06-30T22:51:12.374Z,98914.00
2018-06-30T22:53:43.447Z,98925.00
2018-06-30T22:56:14.335Z,98927.00
2018-06-30T22:58:45.385Z,98927.00
2018-06-30T23:01:16.206Z,98926.00
2018-06-30T23:03:46.674Z,98928.00
2018-06-30T23:06:17.518Z,98926.00
2018-06-30T23:08:55.268Z,98922.00
2018-06-30T23:11:26.045Z,98923.00
2018-06-30T23:13:57.112Z,98921.00
2018-06-30T23:16:28.531Z,98919.00
2018-06-30T23:18:59.243Z,98920.00
2018-06-30T23:21:30.123Z,98920.00
2018-06-30T23:24:00.859Z,98931.00
2018-06-30T23:26:31.655Z,98931.00
2018-06-30T23:29:02.813Z,98924.00
2018-06-30T23:31:33.938Z,98929.00
2018-06-30T23:34:04.829Z,98922.00
2018-06-30T23:36:35.911Z,98929.00
2018-06-30T23:39:09.290Z,98941.00
2018-06-30T23:41:40.572Z,98943.00
2018-06-30T23:44:11.520Z,98945.00
2018-06-30T23:46:42.244Z,98938.00
2018-06-30T23:49:12.616Z,98942.00
2018-06-30T23:51:43.384Z,98954.00
2018-06-30T23:54:13.861Z,98956.00
2018-06-30T23:56:44.898Z,98955.00
2018-06-30T23:59:15.750Z,98950.00
